Time;durP1;ratioP1;P1;durP2;ratioP2;P2;SDS_P1;SDS_P2;PMS_P1;PMS_P2;Temp;Humidity;BMP_temperature;BMP_pressure;BME280_temperature;BME280_humidity;BME280_pressure;Samples;Min_cycle;Max_cycle;Signal;HPM_P1;HPM_P2
2021/04/16 00:00:38;;;;;;;6.00;2.42;;;21.90;63.70;;;;;;5090153;28;20028;-68
2021/04/16 00:03:05;;;;;;;13.50;3.30;;;21.90;63.80;;;;;;5089607;28;20099;-69
2021/04/16 00:05:32;;;;;;;12.90;3.00;;;21.90;63.80;;;;;;5090394;28;20020;-68
2021/04/16 00:07:59;;;;;;;10.40;2.88;;;21.90;63.80;;;;;;5083298;28;20024;-67
2021/04/16 00:10:38;;;;;;;14.65;3.72;;;21.80;63.80;;;;;;5089671;28;20028;-68
2021/04/16 00:13:06;;;;;;;7.68;2.33;;;21.80;63.80;;;;;;5088436;28;20019;-68
2021/04/16 00:15:36;;;;;;;8.57;2.60;;;21.80;63.80;;;;;;5089405;28;20423;-68
2021/04/16 00:18:07;;;;;;;7.20;3.45;;;21.80;63.80;;;;;;5089792;28;20024;-68
2021/04/16 00:20:34;;;;;;;10.15;2.60;;;21.80;63.80;;;;;;5083967;28;20021;-68
2021/04/16 00:23:01;;;;;;;7.18;1.92;;;21.80;63.90;;;;;;5089136;28;20027;-68
2021/04/16 00:25:31;;;;;;;9.32;2.63;;;21.80;63.90;;;;;;5089239;28;20501;-68
2021/04/16 00:27:58;;;;;;;9.15;3.22;;;21.80;64.00;;;;;;5089669;28;20055;-69
2021/04/16 00:30:31;;;;;;;11.98;2.72;;;21.80;64.00;;;;;;5083977;28;20540;-68
2021/04/16 00:32:58;;;;;;;7.40;1.98;;;21.80;64.00;;;;;;5087788;28;20047;-67
2021/04/16 00:35:24;;;;;;;13.90;3.15;;;21.80;64.10;;;;;;5090191;28;20020;-68
2021/04/16 00:37:51;;;;;;;5.85;2.10;;;21.70;64.00;;;;;;5089073;28;20445;-67
2021/04/16 00:40:23;;;;;;;10.23;2.53;;;21.70;64.10;;;;;;5089777;28;20017;-67
2021/04/16 00:42:58;;;;;;;6.30;1.95;;;21.70;64.00;;;;;;5089129;28;20012;-69
2021/04/16 00:45:27;;;;;;;8.20;1.83;;;21.70;64.10;;;;;;5083776;28;20099;-68
2021/04/16 00:47:57;;;;;;;6.65;1.50;;;21.70;64.00;;;;;;5089925;28;20032;-68
2021/04/16 00:50:46;;;;;;;6.80;2.03;;;21.70;64.00;;;;;;5083371;28;20035;-68
2021/04/16 00:53:15;;;;;;;10.23;3.30;;;21.70;64.10;;;;;;5089289;28;20115;-68
2021/04/16 00:55:42;;;;;;;11.68;2.60;;;21.70;64.00;;;;;;5087173;28;20016;-68
2021/04/16 00:58:09;;;;;;;9.30;2.80;;;21.70;64.00;;;;;;5089325;28;20042;-69
2021/04/16 01:00:37;;;;;;;10.70;2.90;;;21.70;64.10;;;;;;5089769;28;20020;-68
2021/04/16 01:03:07;;;;;;;8.68;2.88;;;21.70;64.10;;;;;;5088957;28;20007;-68
2021/04/16 01:05:33;;;;;;;6.28;2.40;;;21.70;64.70;;;;;;5089825;28;20025;-68
2021/04/16 01:08:00;;;;;;;10.65;3.20;;;21.70;64.00;;;;;;5082026;28;20012;-68
2021/04/16 01:10:27;;;;;;;6.40;2.63;;;21.70;64.00;;;;;;5089148;28;20047;-68
2021/04/16 01:12:53;;;;;;;9.48;3.13;;;21.70;64.10;;;;;;5088892;28;20024;-68
2021/04/16 01:15:29;;;;;;;9.48;2.88;;;21.70;64.10;;;;;;5089925;28;20008;-68
2021/04/16 01:17:59;;;;;;;8.13;3.33;;;21.60;64.00;;;;;;5084599;28;20036;-70
2021/04/16 01:20:32;;;;;;;10.18;3.10;;;21.70;64.10;;;;;;5087889;28;20095;-71
2021/04/16 01:23:03;;;;;;;7.90;2.38;;;21.60;64.10;;;;;;5089553;28;20016;-68
2021/04/16 01:25:31;;;;;;;9.50;3.08;;;21.60;64.10;;;;;;5088617;28;20028;-67
2021/04/16 01:27:57;;;;;;;12.85;3.03;;;21.60;64.00;;;;;;5089653;28;20676;-68
2021/04/16 01:30:27;;;;;;;6.13;2.25;;;21.60;64.00;;;;;;5084075;28;20444;-68
2021/04/16 01:32:54;;;;;;;9.98;3.55;;;21.60;64.10;;;;;;5093101;28;20020;-67
2021/04/16 01:35:29;;;;;;;8.82;2.75;;;21.60;64.10;;;;;;5093048;28;20043;-68
2021/04/16 01:37:56;;;;;;;6.43;2.45;;;21.60;64.00;;;;;;5092170;28;20081;-68
2021/04/16 01:40:24;;;;;;;6.97;2.03;;;21.50;64.00;;;;;;5088784;28;20099;-68
2021/04/16 01:42:50;;;;;;;9.23;1.70;;;21.50;63.80;;;;;;5090069;28;20030;-68
2021/04/16 01:45:35;;;;;;;11.60;2.20;;;21.50;63.80;;;;;;5092882;28;20016;-67
2021/04/16 01:48:02;;;;;;;5.47;1.90;;;21.60;63.60;;;;;;5092366;28;20027;-70
2021/04/16 01:50:30;;;;;;;6.65;2.17;;;21.50;63.50;;;;;;5092304;28;20515;-68
2021/04/16 01:53:01;;;;;;;9.50;2.30;;;21.50;63.30;;;;;;5092937;28;20020;-68
2021/04/16 01:55:28;;;;;;;7.72;2.20;;;21.50;63.20;;;;;;5091842;28;20030;-68
2021/04/16 01:57:55;;;;;;;5.97;2.28;;;21.50;63.10;;;;;;5092640;28;20016;-68
2021/04/16 02:00:30;;;;;;;7.45;1.90;;;21.50;63.00;;;;;;5087532;28;20042;-68
2021/04/16 02:02:56;;;;;;;4.28;2.13;;;21.50;63.00;;;;;;5090837;28;20048;-67
2021/04/16 02:05:23;;;;;;;4.68;1.70;;;21.50;63.00;;;;;;5091605;28;20570;-68
2021/04/16 02:07:51;;;;;;;11.32;1.85;;;21.50;63.00;;;;;;5092053;28;20028;-68
2021/04/16 02:10:18;;;;;;;5.20;1.73;;;21.50;62.90;;;;;;5092240;28;20058;-67
2021/04/16 02:12:44;;;;;;;6.75;1.73;;;21.50;63.00;;;;;;5091480;28;20073;-69
2021/04/16 02:15:11;;;;;;;4.97;1.45;;;21.50;62.90;;;;;;5084280;28;20510;-68
2021/04/16 02:17:38;;;;;;;7.05;2.20;;;21.50;62.90;;;;;;5081408;28;20078;-69
2021/04/16 02:20:18;;;;;;;6.13;1.85;;;21.50;63.00;;;;;;5085154;28;20028;-69
2021/04/16 02:22:45;;;;;;;7.97;2.50;;;21.50;63.00;;;;;;5089701;28;20029;-69
2021/04/16 02:25:12;;;;;;;6.28;2.20;;;21.50;63.00;;;;;;5088853;28;20027;-68
2021/04/16 02:27:39;;;;;;;6.13;2.10;;;21.50;62.90;;;;;;5084025;28;20115;-68
2021/04/16 02:30:11;;;;;;;8.50;2.33;;;21.50;62.90;;;;;;5086000;28;20047;-69
2021/04/16 02:32:37;;;;;;;7.72;2.13;;;21.40;62.90;;;;;;5091801;28;20470;-67
2021/04/16 02:35:06;;;;;;;8.27;2.05;;;21.40;62.90;;;;;;5090802;28;20020;-68
2021/04/16 02:37:33;;;;;;;9.18;3.20;;;21.40;62.90;;;;;;5091947;28;20048;-68
2021/04/16 02:39:59;;;;;;;11.38;3.60;;;21.40;63.00;;;;;;5091356;28;20380;-67
2021/04/16 02:42:26;;;;;;;5.80;1.55;;;21.40;63.00;;;;;;5091253;28;20040;-68
2021/04/16 02:44:53;;;;;;;9.63;1.88;;;21.40;63.00;;;;;;5092108;28;20039;-69
2021/04/16 02:47:20;;;;;;;11.30;2.28;;;21.40;63.00;;;;;;5087867;28;20028;-67
2021/04/16 02:49:46;;;;;;;11.25;2.90;;;21.40;63.00;;;;;;5086671;28;20024;-68
2021/04/16 02:52:13;;;;;;;7.28;2.30;;;21.40;63.00;;;;;;5090153;28;20096;-68
2021/04/16 02:54:40;;;;;;;8.38;1.63;;;21.40;63.00;;;;;;5091570;28;20095;-67
2021/04/16 02:57:06;;;;;;;7.00;2.25;;;21.40;62.90;;;;;;5091018;28;20024;-67
2021/04/16 02:59:33;;;;;;;6.30;2.30;;;21.40;62.80;;;;;;5091326;28;20028;-68
2021/04/16 03:01:59;;;;;;;4.53;1.90;;;21.40;62.80;;;;;;5091473;28;20020;-68
2021/04/16 03:04:26;;;;;;;11.23;1.88;;;21.40;62.70;;;;;;5090474;28;20471;-67
2021/04/16 03:06:53;;;;;;;12.50;1.88;;;21.30;62.60;;;;;;5091571;28;20031;-67
2021/04/16 03:09:19;;;;;;;5.53;1.50;;;21.30;62.60;;;;;;5090292;28;20064;-68
2021/04/16 03:11:46;;;;;;;6.03;1.90;;;21.30;62.50;;;;;;5084545;28;20038;-68
2021/04/16 03:14:12;;;;;;;10.57;2.22;;;21.30;62.40;;;;;;5087231;28;20031;-69
2021/04/16 03:16:39;;;;;;;5.75;2.10;;;21.30;62.40;;;;;;5090826;28;20537;-68
2021/04/16 03:19:06;;;;;;;6.50;2.05;;;21.30;62.40;;;;;;5091025;28;20497;-67
2021/04/16 03:21:33;;;;;;;7.85;2.10;;;21.30;63.00;;;;;;5090469;28;20360;-69
2021/04/16 03:23:59;;;;;;;6.10;2.38;;;21.30;62.30;;;;;;5088652;28;20020;-68
2021/04/16 03:26:26;;;;;;;4.32;2.05;;;21.30;62.20;;;;;;5090301;28;20020;-69
2021/04/16 03:28:56;;;;;;;7.38;2.83;;;21.30;62.90;;;;;;5091055;28;20107;-68
2021/04/16 03:31:23;;;;;;;3.60;1.90;;;21.30;62.20;;;;;;5084314;28;20067;-68
2021/04/16 03:33:49;;;;;;;4.07;1.73;;;21.30;62.20;;;;;;5086483;28;20507;-68
2021/04/16 03:36:16;;;;;;;11.27;2.58;;;21.30;62.90;;;;;;5090407;28;20081;-68
2021/04/16 03:38:43;;;;;;;12.88;2.40;;;21.30;62.20;;;;;;5087343;28;20377;-68
2021/04/16 03:41:09;;;;;;;8.07;2.08;;;21.30;62.30;;;;;;5090731;28;20016;-67
2021/04/16 03:43:36;;;;;;;6.03;1.98;;;21.30;62.30;;;;;;5089800;28;20493;-68
2021/04/16 03:46:03;;;;;;;4.70;1.95;;;21.30;62.30;;;;;;5090765;28;20435;-67
2021/04/16 03:48:29;;;;;;;4.15;1.70;;;21.20;62.20;;;;;;5083387;28;20389;-69
2021/04/16 03:50:56;;;;;;;9.82;1.80;;;21.20;62.20;;;;;;5087502;28;20032;-71
2021/04/16 03:53:23;;;;;;;11.38;2.75;;;21.20;62.60;;;;;;5089189;28;20020;-68
2021/04/16 03:55:50;;;;;;;8.85;2.42;;;21.20;62.20;;;;;;5090216;28;20051;-68
2021/04/16 03:58:17;;;;;;;6.40;2.72;;;21.20;62.20;;;;;;5084046;28;20020;-68
2021/04/16 04:00:44;;;;;;;6.20;1.73;;;21.20;62.30;;;;;;5084517;28;20020;-70
2021/04/16 04:03:13;;;;;;;6.80;1.95;;;21.20;62.20;;;;;;5089387;28;20023;-70
2021/04/16 04:05:39;;;;;;;3.25;1.55;;;21.20;62.20;;;;;;5089399;28;20028;-68
2021/04/16 04:08:07;;;;;;;6.78;1.90;;;21.20;62.30;;;;;;5090252;28;20023;-69
2021/04/16 04:10:38;;;;;;;5.53;2.35;;;21.20;62.30;;;;;;5089566;28;20396;-68
2021/04/16 04:13:09;;;;;;;7.75;1.60;;;21.20;62.30;;;;;;5083441;28;20043;-72
2021/04/16 04:15:36;;;;;;;11.40;2.55;;;21.20;62.30;;;;;;5084693;28;20103;-69
2021/04/16 04:18:07;;;;;;;8.00;3.30;;;21.10;62.30;;;;;;5087603;28;20019;-69
2021/04/16 04:20:39;;;;;;;6.57;4.35;;;21.10;62.30;;;;;;5080382;28;20024;-69
2021/04/16 04:23:07;;;;;;;16.23;4.82;;;21.10;62.40;;;;;;5089167;28;20020;-68
2021/04/16 04:25:34;;;;;;;11.63;4.03;;;21.10;62.50;;;;;;5086437;28;20057;-70
2021/04/16 04:28:03;;;;;;;7.82;3.65;;;21.20;62.60;;;;;;5086088;28;20031;-71
2021/04/16 04:30:33;;;;;;;7.18;3.10;;;21.10;62.50;;;;;;5083706;28;20054;-69
2021/04/16 04:33:00;;;;;;;7.40;4.50;;;21.10;62.60;;;;;;5087159;28;20062;-74
2021/04/16 04:35:27;;;;;;;7.45;3.95;;;21.10;62.60;;;;;;5088711;28;20548;-73
2021/04/16 04:37:55;;;;;;;10.32;3.33;;;21.10;62.50;;;;;;5090184;28;20020;-69
2021/04/16 04:40:23;;;;;;;10.02;2.70;;;21.10;62.50;;;;;;5086504;28;20019;-71
2021/04/16 04:42:49;;;;;;;8.93;2.83;;;21.10;62.70;;;;;;5088027;28;20020;-71
2021/04/16 04:45:18;;;;;;;8.13;2.47;;;21.10;62.30;;;;;;5089371;28;20020;-71
2021/04/16 04:47:44;;;;;;;6.03;2.55;;;21.10;62.20;;;;;;5088910;28;20020;-70
2021/04/16 04:50:12;;;;;;;7.35;2.40;;;21.10;62.10;;;;;;5089456;28;20020;-69
2021/04/16 04:52:39;;;;;;;8.88;2.47;;;21.00;62.00;;;;;;5081182;28;20532;-69
2021/04/16 04:55:13;;;;;;;8.88;2.30;;;21.10;62.00;;;;;;5084935;28;20475;-70
2021/04/16 04:57:39;;;;;;;5.85;1.75;;;21.10;62.00;;;;;;5072917;28;20013;-70
2021/04/16 05:00:09;;;;;;;3.88;1.85;;;21.10;61.90;;;;;;5077216;28;20028;-70
2021/04/16 05:02:36;;;;;;;7.63;1.95;;;21.00;61.70;;;;;;5079604;28;20020;-69
2021/04/16 05:05:03;;;;;;;2.42;1.58;;;21.10;61.70;;;;;;5079796;28;20394;-71
2021/04/16 05:07:29;;;;;;;5.78;1.75;;;21.00;61.60;;;;;;5083814;28;20069;-70
2021/04/16 05:09:56;;;;;;;5.68;2.13;;;21.00;61.60;;;;;;5077106;28;20375;-70
2021/04/16 05:12:23;;;;;;;4.97;2.20;;;21.00;61.60;;;;;;5082110;28;20072;-70
2021/04/16 05:14:49;;;;;;;7.70;1.70;;;21.00;61.60;;;;;;5077603;28;20031;-69
2021/04/16 05:17:16;;;;;;;4.07;1.73;;;21.00;61.60;;;;;;5082128;28;20370;-71
2021/04/16 05:19:43;;;;;;;4.00;1.63;;;21.00;61.70;;;;;;5082520;28;20478;-70
2021/04/16 05:22:09;;;;;;;9.88;2.00;;;21.00;61.70;;;;;;5082031;28;20021;-70
2021/04/16 05:24:36;;;;;;;7.20;2.20;;;21.00;61.70;;;;;;5080236;28;20020;-71
2021/04/16 05:27:07;;;;;;;8.18;2.20;;;21.00;61.70;;;;;;5080800;28;20007;-71
2021/04/16 05:29:34;;;;;;;11.05;2.80;;;21.00;61.80;;;;;;5072348;28;20029;-71
2021/04/16 05:32:01;;;;;;;8.82;2.42;;;21.00;62.00;;;;;;5080487;28;20032;-70
2021/04/16 05:34:27;;;;;;;8.77;2.63;;;21.00;61.90;;;;;;5083404;28;20016;-69
2021/04/16 05:36:54;;;;;;;8.38;3.20;;;21.00;62.00;;;;;;5086243;28;20095;-71
2021/04/16 05:39:22;;;;;;;6.20;2.75;;;21.00;62.60;;;;;;5086278;28;20054;-70
2021/04/16 05:41:48;;;;;;;9.43;3.15;;;20.90;62.10;;;;;;5088461;28;20016;-70
2021/04/16 05:44:15;;;;;;;9.90;3.10;;;21.00;62.20;;;;;;5090116;28;20024;-69
2021/04/16 05:46:41;;;;;;;7.40;3.08;;;21.00;62.30;;;;;;5093068;28;20078;-71
2021/04/16 05:49:08;;;;;;;9.70;3.35;;;20.90;62.30;;;;;;5092936;28;20028;-70
2021/04/16 05:51:37;;;;;;;11.43;3.75;;;20.90;62.30;;;;;;5092788;28;20421;-69
2021/04/16 05:54:05;;;;;;;11.23;3.13;;;20.90;62.40;;;;;;5091999;28;20515;-70
2021/04/16 05:56:32;;;;;;;7.40;2.97;;;20.90;62.40;;;;;;5092852;28;20085;-70
2021/04/16 05:58:58;;;;;;;10.00;3.45;;;20.90;62.30;;;;;;5091417;28;20115;-66
2021/04/16 06:01:25;;;;;;;11.38;4.32;;;20.90;62.30;;;;;;5092294;28;20082;-69
2021/04/16 06:03:52;;;;;;;7.03;2.80;;;20.90;62.20;;;;;;5090473;28;20021;-69
2021/04/16 06:06:18;;;;;;;8.50;2.78;;;20.90;62.20;;;;;;5088253;28;20012;-69
2021/04/16 06:08:45;;;;;;;8.10;3.00;;;20.90;62.10;;;;;;5092056;28;20066;-69
2021/04/16 06:11:12;;;;;;;7.30;2.30;;;20.90;62.00;;;;;;5091370;28;20036;-69
2021/04/16 06:13:38;;;;;;;7.32;2.65;;;20.90;61.90;;;;;;5074663;28;20024;-69
2021/04/16 06:16:06;;;;;;;7.70;2.42;;;20.90;61.80;;;;;;5090998;28;20015;-70
2021/04/16 06:18:33;;;;;;;8.25;2.60;;;21.00;61.80;;;;;;5092240;28;20046;-69
2021/04/16 06:21:00;;;;;;;5.95;1.92;;;21.00;61.80;;;;;;5088105;28;20050;-70
2021/04/16 06:23:26;;;;;;;9.77;3.30;;;20.90;61.60;;;;;;5091441;28;20016;-69
2021/04/16 06:25:53;;;;;;;5.32;1.95;;;21.00;61.70;;;;;;5092393;28;20474;-70
2021/04/16 06:28:20;;;;;;;6.05;1.98;;;21.00;61.70;;;;;;5090861;28;20032;-70
2021/04/16 06:30:46;;;;;;;7.25;2.25;;;21.00;61.80;;;;;;5088075;28;20052;-69
2021/04/16 06:33:25;;;;;;;6.75;1.83;;;21.00;61.80;;;;;;5089580;28;20012;-71
2021/04/16 06:36:00;;;;;;;6.43;2.22;;;21.00;61.80;;;;;;5091865;28;20048;-70
2021/04/16 06:38:36;;;;;;;6.45;2.13;;;21.00;62.00;;;;;;5092063;28;20103;-69
2021/04/16 06:41:04;;;;;;;8.07;2.13;;;21.00;61.90;;;;;;5090872;28;20008;-70
2021/04/16 06:43:54;;;;;;;5.43;2.33;;;21.00;62.00;;;;;;5091958;28;20352;-69
2021/04/16 06:46:40;;;;;;;6.05;2.78;;;21.00;61.90;;;;;;5088534;28;20024;-70
2021/04/16 06:49:17;;;;;;;;;;;21.10;62.00;;;;;;5091819;28;20046;-69
2021/04/16 06:52:06;;;;;;;6.18;2.05;;;21.10;62.00;;;;;;5084654;28;19995;-70
2021/04/16 06:54:56;;;;;;;7.55;2.42;;;21.10;61.90;;;;;;5087504;28;20028;-70
2021/04/16 06:57:45;;;;;;;10.52;2.70;;;21.10;62.00;;;;;;5090045;28;20020;-69
2021/04/16 07:00:47;;;;;;;6.50;2.35;;;21.10;62.00;;;;;;5091764;28;20024;-68
2021/04/16 07:03:26;;;;;;;6.15;2.70;;;21.20;62.00;;;;;;5089929;28;20024;-69
2021/04/16 07:06:01;;;;;;;6.88;2.58;;;21.20;62.10;;;;;;5091519;28;20035;-69
2021/04/16 07:08:59;;;;;;;;;;;21.20;62.10;;;;;;5088314;28;20429;-69
2021/04/16 07:11:31;;;;;;;4.05;2.05;;;21.20;62.00;;;;;;5055724;28;19912;-67
2021/04/16 07:14:03;;;;;;;5.70;1.88;;;21.30;62.00;;;;;;5091302;28;20563;-70
2021/04/16 07:16:33;;;;;;;6.13;1.90;;;21.30;62.00;;;;;;5088115;28;20036;-69
2021/04/16 07:19:15;;;;;;;8.57;1.90;;;21.40;62.00;;;;;;5090588;28;20024;-70
2021/04/16 07:21:42;;;;;;;6.80;2.63;;;21.40;62.10;;;;;;5091129;28;20024;-69
2021/04/16 07:24:11;;;;;;;6.13;1.98;;;21.40;62.20;;;;;;5090198;28;20016;-69
2021/04/16 07:26:43;;;;;;;12.27;2.97;;;21.40;62.20;;;;;;5090790;28;20020;-69
2021/04/16 07:29:19;;;;;;;6.57;2.03;;;21.40;62.10;;;;;;5089617;28;20093;-68
2021/04/16 07:31:49;;;;;;;10.20;2.45;;;21.50;62.20;;;;;;5090838;28;20124;-70
2021/04/16 07:34:38;;;;;;;9.25;2.67;;;21.50;62.20;;;;;;5083959;28;20023;-69
2021/04/16 07:37:39;;;;;;;5.35;2.80;;;21.50;62.20;;;;;;5089881;28;20038;-69
2021/04/16 07:40:10;;;;;;;6.22;3.47;;;21.60;62.20;;;;;;5078467;28;20404;-68
2021/04/16 07:42:42;;;;;;;9.32;2.97;;;21.60;62.10;;;;;;5081198;28;20024;-68
2021/04/16 07:45:33;;;;;;;9.05;2.75;;;21.60;61.90;;;;;;5090451;28;20020;-69
2021/04/16 07:48:17;;;;;;;4.20;2.15;;;21.70;61.80;;;;;;5090635;28;20378;-70
2021/04/16 07:50:47;;;;;;;4.75;1.92;;;21.70;61.40;;;;;;5089560;28;20068;-69
2021/04/16 07:53:31;;;;;;;9.10;2.38;;;21.70;61.20;;;;;;5090624;28;20020;-68
2021/04/16 07:56:15;;;;;;;9.88;3.83;;;21.80;60.80;;;;;;5083743;28;20028;-68
2021/04/16 07:58:43;;;;;;;8.27;3.65;;;21.80;60.60;;;;;;5087790;28;20024;-68
2021/04/16 08:01:15;;;;;;;7.43;2.13;;;21.90;60.20;;;;;;5090539;28;20162;-69
2021/04/16 08:03:51;;;;;;;10.70;3.20;;;21.90;60.00;;;;;;5089418;28;20117;-69
2021/04/16 08:06:36;;;;;;;5.82;2.10;;;22.00;59.80;;;;;;5085426;28;20012;-69
2021/04/16 08:09:08;;;;;;;4.72;2.00;;;22.00;59.50;;;;;;5093521;28;20398;-68
2021/04/16 08:11:36;;;;;;;9.48;2.42;;;22.10;59.40;;;;;;5089900;28;20562;-68
2021/04/16 08:14:11;;;;;;;5.57;1.83;;;22.10;59.30;;;;;;5090483;28;20024;-68
2021/04/16 08:16:43;;;;;;;5.43;1.98;;;22.20;59.40;;;;;;5089177;28;20040;-68
2021/04/16 08:19:18;;;;;;;7.68;1.92;;;22.20;59.10;;;;;;5089664;28;20099;-70
2021/04/16 08:21:49;;;;;;;2.83;1.90;;;22.30;59.10;;;;;;5089603;28;20027;-70
2021/04/16 08:24:24;;;;;;;7.82;2.00;;;22.40;59.00;;;;;;5089733;28;20103;-69
2021/04/16 08:27:02;;;;;;;6.80;2.20;;;22.40;58.80;;;;;;5090214;28;20050;-70
2021/04/16 08:29:54;;;;;;;8.45;1.95;;;22.40;58.60;;;;;;5083290;28;20027;-69
2021/04/16 08:32:44;;;;;;;5.47;2.65;;;22.40;58.60;;;;;;5071581;28;20361;-70
2021/04/16 08:35:43;;;;;;;5.63;1.90;;;22.50;58.60;;;;;;5089289;28;20028;-69
2021/04/16 08:38:16;;;;;;;6.40;2.20;;;22.60;58.10;;;;;;5051380;28;20584;-69
2021/04/16 08:40:52;;;;;;;12.45;2.40;;;22.60;58.00;;;;;;5094295;28;20093;-69
2021/04/16 08:43:44;;;;;;;5.82;1.92;;;22.70;57.60;;;;;;5093609;28;20008;-70
2021/04/16 08:46:30;;;;;;;4.80;1.85;;;22.80;57.70;;;;;;5093402;28;20425;-70
2021/04/16 08:49:04;;;;;;;5.85;2.03;;;22.80;57.50;;;;;;5080125;28;21128;-69
2021/04/16 08:51:34;;;;;;;4.22;2.47;;;22.80;57.50;;;;;;5092962;28;20555;-70
2021/04/16 08:54:08;;;;;;;7.43;2.25;;;22.90;57.30;;;;;;5094223;28;20039;-70
2021/04/16 08:56:47;;;;;;;8.82;2.45;;;23.00;56.40;;;;;;5084389;28;20027;-70
2021/04/16 08:59:16;;;;;;;7.32;1.80;;;23.00;56.10;;;;;;5092578;28;20379;-69
2021/04/16 09:01:54;;;;;;;9.88;2.38;;;23.10;55.80;;;;;;5094025;28;20606;-70
2021/04/16 09:04:32;;;;;;;8.60;3.15;;;23.10;55.60;;;;;;5087244;28;20035;-70
2021/04/16 09:07:01;;;;;;;5.25;2.45;;;23.10;55.40;;;;;;5093794;28;20031;-70
2021/04/16 09:09:53;;;;;;;12.45;2.22;;;23.20;55.10;;;;;;5093121;28;20065;-71
2021/04/16 09:12:53;;;;;;;12.25;2.95;;;23.20;54.70;;;;;;5092655;28;20463;-69
2021/04/16 09:15:19;;;;;;;7.28;2.67;;;23.30;54.90;;;;;;5049467;28;20028;-70
2021/04/16 09:17:55;;;;;;;7.65;2.90;;;23.30;54.90;;;;;;5091804;28;20041;-69
2021/04/16 09:20:33;;;;;;;6.65;2.80;;;23.30;55.00;;;;;;5092302;28;20032;-70
2021/04/16 09:23:01;;;;;;;5.03;1.77;;;23.40;55.10;;;;;;5094052;28;20153;-71
2021/04/16 09:25:43;;;;;;;5.88;2.75;;;23.40;54.90;;;;;;5092373;28;20008;-70
2021/04/16 09:28:24;;;;;;;7.22;2.40;;;23.50;54.80;;;;;;5086937;28;20028;-70
2021/04/16 09:31:01;;;;;;;11.00;2.60;;;23.50;54.80;;;;;;5091547;28;20051;-70
2021/04/16 09:33:36;;;;;;;9.95;2.50;;;23.60;54.80;;;;;;5087063;28;20083;-71
2021/04/16 09:36:27;;;;;;;7.93;2.45;;;23.60;54.50;;;;;;5091392;28;20076;-71
2021/04/16 09:38:54;;;;;;;7.53;2.25;;;23.70;54.50;;;;;;5091706;28;20028;-69
2021/04/16 09:41:23;;;;;;;14.55;3.05;;;23.80;54.30;;;;;;5088845;28;20085;-70
2021/04/16 09:43:53;;;;;;;9.18;3.08;;;23.90;54.20;;;;;;5091097;28;20024;-70
2021/04/16 09:46:35;;;;;;;7.70;2.58;;;23.90;54.80;;;;;;5092793;28;20027;-70
2021/04/16 09:49:10;;;;;;;8.02;2.03;;;24.00;54.30;;;;;;5093108;28;20029;-69
2021/04/16 09:51:40;;;;;;;5.80;2.25;;;24.10;54.20;;;;;;5084105;28;20153;-71
2021/04/16 09:54:13;;;;;;;6.68;2.55;;;24.20;54.00;;;;;;5093008;28;20065;-69
2021/04/16 09:57:02;;;;;;;9.95;3.15;;;24.30;53.80;;;;;;5091797;28;20024;-71
2021/04/16 09:59:34;;;;;;;7.95;2.65;;;24.40;53.70;;;;;;5090378;28;20016;-70
2021/04/16 10:02:13;;;;;;;8.82;2.67;;;24.40;53.40;;;;;;5092863;28;20016;-71
2021/04/16 10:05:10;;;;;;;6.25;2.20;;;24.50;53.60;;;;;;5088050;28;20080;-71
2021/04/16 10:07:44;;;;;;;5.38;2.13;;;24.60;52.20;;;;;;5090621;28;20024;-70
2021/04/16 10:10:39;;;;;;;8.07;2.30;;;24.70;51.90;;;;;;5092075;28;20004;-70
2021/04/16 10:13:32;;;;;;;8.10;3.53;;;24.80;50.90;;;;;;5090038;28;20036;-71
2021/04/16 10:16:00;;;;;;;5.57;2.08;;;25.00;51.20;;;;;;5092784;28;20060;-70
2021/04/16 10:18:29;;;;;;;7.38;2.50;;;25.00;49.60;;;;;;5091574;28;20065;-71
2021/04/16 10:21:03;;;;;;;6.28;2.08;;;25.10;49.80;;;;;;5092142;28;20027;-71
2021/04/16 10:23:40;;;;;;;8.98;2.85;;;25.20;49.70;;;;;;5092343;28;20478;-69
2021/04/16 10:33:42;;;;;;;15.20;3.85;;;25.50;49.80;;;;;;5090469;28;20051;-69
2021/04/16 10:59:15;;;;;;;7.07;3.20;;;26.30;46.10;;;;;;5088908;28;20798;-70
2021/04/16 12:39:03;;;;;;;;;;;28.70;42.40;;;;;;5028766;28;20028;-69
2021/04/16 12:41:31;;;;;;;9.70;4.13;;;28.70;42.30;;;;;;5028069;28;20377;-69
2021/04/16 12:43:58;;;;;;;9.05;2.53;;;28.70;42.30;;;;;;5079236;28;20066;-70
2021/04/16 12:46:32;;;;;;;6.40;2.72;;;28.70;42.30;;;;;;5085980;28;20082;-68
2021/04/16 12:48:58;;;;;;;6.40;1.85;;;28.70;42.50;;;;;;5085647;28;20430;-69
2021/04/16 12:51:25;;;;;;;8.18;2.60;;;28.70;42.40;;;;;;5089935;28;20027;-69
2021/04/16 12:53:51;;;;;;;7.57;2.30;;;28.70;42.40;;;;;;5088791;28;20028;-71
2021/04/16 12:56:29;;;;;;;4.22;2.33;;;28.80;42.20;;;;;;5089972;28;20386;-69
2021/04/16 12:59:04;;;;;;;9.18;2.05;;;28.80;41.90;;;;;;5089499;28;20027;-69
2021/04/16 13:01:31;;;;;;;7.53;2.13;;;28.80;41.70;;;;;;5086209;28;20426;-69
2021/04/16 13:03:59;;;;;;;7.57;2.60;;;28.80;41.40;;;;;;5089985;28;20137;-69
2021/04/16 13:06:25;;;;;;;6.60;1.98;;;28.80;41.40;;;;;;5088961;28;20406;-71
2021/04/16 13:08:52;;;;;;;8.90;2.30;;;28.80;41.20;;;;;;5087024;28;20032;-69
2021/04/16 13:11:19;;;;;;;4.38;2.17;;;28.80;41.00;;;;;;5087226;28;20021;-70
2021/04/16 13:13:46;;;;;;;7.22;2.50;;;28.80;41.10;;;;;;5089856;28;20043;-69
2021/04/16 13:16:13;;;;;;;9.02;2.63;;;28.80;40.80;;;;;;5089338;28;20028;-69
2021/04/16 13:18:43;;;;;;;5.72;1.73;;;28.80;40.60;;;;;;5089236;28;20217;-68
2021/04/16 13:21:36;;;;;;;10.43;2.70;;;28.80;40.50;;;;;;5089766;28;20107;-69
2021/04/16 13:24:04;;;;;;;8.20;2.10;;;28.70;40.20;;;;;;5084938;28;20032;-69
2021/04/16 13:26:31;;;;;;;13.10;3.35;;;28.80;40.30;;;;;;5088509;28;20058;-69
2021/04/16 13:28:58;;;;;;;10.93;2.65;;;28.80;40.60;;;;;;5091287;28;20012;-69
2021/04/16 13:31:28;;;;;;;6.03;2.70;;;28.80;40.70;;;;;;5093167;28;20123;-69
2021/04/16 13:33:55;;;;;;;9.48;2.45;;;28.80;40.80;;;;;;5089801;28;20044;-70
2021/04/16 13:36:26;;;;;;;6.82;2.20;;;28.80;41.10;;;;;;5090866;28;20005;-69
2021/04/16 13:38:54;;;;;;;8.73;3.05;;;28.80;40.80;;;;;;5093266;28;20024;-68
2021/04/16 13:41:21;;;;;;;5.57;3.25;;;28.80;41.00;;;;;;5091961;28;20035;-68
2021/04/16 13:43:50;;;;;;;6.47;3.20;;;28.80;41.00;;;;;;5093312;28;20489;-69
2021/04/16 13:46:24;;;;;;;9.90;3.22;;;28.80;41.40;;;;;;5092417;28;20012;-69
2021/04/16 13:48:50;;;;;;;10.07;2.80;;;28.80;41.50;;;;;;5092761;28;20050;-69
2021/04/16 13:51:20;;;;;;;10.10;3.22;;;28.80;41.20;;;;;;5092684;28;20020;-68
2021/04/16 13:53:46;;;;;;;14.40;3.75;;;28.80;41.40;;;;;;5091640;28;20020;-70
2021/04/16 13:56:13;;;;;;;8.95;3.17;;;28.80;42.30;;;;;;5091551;28;20028;-70
2021/04/16 13:58:40;;;;;;;9.20;4.07;;;28.70;42.50;;;;;;5088625;28;20024;-70
2021/04/16 14:01:12;;;;;;;12.15;3.95;;;28.70;42.80;;;;;;5091905;28;20032;-71
2021/04/16 14:03:45;;;;;;;8.98;3.30;;;28.60;42.80;;;;;;5086234;28;20023;-70
2021/04/16 14:06:37;;;;;;;13.27;3.42;;;28.60;42.60;;;;;;5092126;28;20375;-69
2021/04/16 14:09:15;;;;;;;11.48;3.22;;;28.60;42.60;;;;;;5087988;28;20028;-69
2021/04/16 14:11:42;;;;;;;8.25;2.80;;;28.50;42.60;;;;;;5090779;28;20016;-70
2021/04/16 14:14:14;;;;;;;8.75;2.45;;;28.50;42.70;;;;;;5086040;28;20115;-69
2021/04/16 14:16:42;;;;;;;14.13;6.18;;;28.50;42.80;;;;;;5091758;28;20016;-69
2021/04/16 14:19:47;;;;;;;7.32;3.72;;;28.50;42.70;;;;;;5091931;28;20097;-69
2021/04/16 14:22:22;;;;;;;11.38;7.47;;;28.40;42.50;;;;;;5063036;28;20131;-70
2021/04/16 14:24:49;;;;;;;10.45;3.92;;;28.30;42.40;;;;;;5090902;28;20012;-69
2021/04/16 14:27:15;;;;;;;8.35;3.55;;;28.30;42.30;;;;;;5092139;28;20024;-70
2021/04/16 14:29:42;;;;;;;8.60;3.08;;;28.30;42.50;;;;;;5091737;28;20067;-69
2021/04/16 14:32:13;;;;;;;6.57;3.30;;;28.20;42.60;;;;;;5091716;28;20027;-70
2021/04/16 14:34:40;;;;;;;9.18;3.15;;;28.20;42.90;;;;;;5092527;28;20020;-69
2021/04/16 14:37:07;;;;;;;10.05;2.65;;;28.20;42.90;;;;;;5090520;28;20024;-70
2021/04/16 14:39:34;;;;;;;10.68;3.20;;;28.10;42.70;;;;;;5092186;28;20017;-70
2021/04/16 14:42:01;;;;;;;9.27;3.38;;;28.10;42.70;;;;;;5090408;28;20113;-73
2021/04/16 14:44:28;;;;;;;9.43;3.00;;;28.10;42.80;;;;;;5087720;28;20013;-70
2021/04/16 14:46:56;;;;;;;7.57;3.10;;;28.10;42.80;;;;;;5081960;28;20398;-72
2021/04/16 14:49:27;;;;;;;10.20;4.70;;;28.00;42.80;;;;;;5089113;28;20026;-73
2021/04/16 14:51:55;;;;;;;32.42;25.95;;;28.00;42.90;;;;;;5091789;28;20035;-71
2021/04/16 14:54:34;;;;;;;24.58;7.25;;;28.00;42.90;;;;;;5089011;28;20024;-70
2021/04/16 14:57:02;;;;;;;13.30;5.45;;;28.00;43.00;;;;;;5091932;28;20020;-70
2021/04/16 14:59:46;;;;;;;8.38;4.22;;;28.00;43.10;;;;;;5085378;28;20043;-72
2021/04/16 15:02:12;;;;;;;10.00;4.43;;;28.00;43.20;;;;;;5091389;28;20028;-72
2021/04/16 15:04:39;;;;;;;7.78;4.15;;;27.90;43.20;;;;;;5091300;28;20028;-71
2021/04/16 15:07:08;;;;;;;14.75;4.72;;;27.90;43.30;;;;;;5089824;28;20012;-77
2021/04/16 15:09:53;;;;;;;15.02;3.88;;;27.80;43.20;;;;;;5087729;28;20474;-71
2021/04/16 15:12:23;;;;;;;10.63;5.15;;;27.80;43.40;;;;;;5090362;28;20028;-74
2021/04/16 15:14:52;;;;;;;12.90;4.18;;;27.70;43.50;;;;;;5091549;28;20032;-72